Time;durP1;ratioP1;P1;durP2;ratioP2;P2;SDS_P1;SDS_P2;PMS_P1;PMS_P2;Temp;Humidity;BMP_temperature;BMP_pressure;BME280_temperature;BME280_humidity;BME280_pressure;Samples;Min_cycle;Max_cycle;Signal;HPM_P1;HPM_P2
2021/08/02 00:00:56;;;;;;;3.97;1.40;;;14.30;99.90;;;;;;4894550;29;20036;-78
2021/08/02 00:03:40;;;;;;;2.95;1.40;;;14.30;99.90;;;;;;4916976;29;20041;-77
2021/08/02 00:06:09;;;;;;;4.57;1.67;;;14.20;99.90;;;;;;4894470;29;20124;-78
2021/08/02 00:08:35;;;;;;;4.32;1.52;;;14.20;99.90;;;;;;4905839;29;20044;-77
2021/08/02 00:11:02;;;;;;;4.35;1.80;;;14.20;99.90;;;;;;4890164;29;20445;-77
2021/08/02 00:13:33;;;;;;;3.38;1.20;;;14.20;99.90;;;;;;4898043;29;20119;-78
2021/08/02 00:16:04;;;;;;;5.43;1.38;;;14.20;99.90;;;;;;4879945;29;20047;-78
2021/08/02 00:18:32;;;;;;;3.88;1.30;;;14.10;99.90;;;;;;4898240;29;20040;-77
2021/08/02 00:21:04;;;;;;;6.22;1.33;;;14.10;99.90;;;;;;4897159;29;20835;-77
2021/08/02 00:23:30;;;;;;;4.15;1.45;;;13.90;99.90;;;;;;4897901;29;20044;-78
2021/08/02 00:26:00;;;;;;;4.95;1.63;;;13.90;99.90;;;;;;4880279;29;20048;-77
2021/08/02 00:28:28;;;;;;;6.55;1.75;;;13.80;99.90;;;;;;4897852;29;20047;-78
2021/08/02 00:30:54;;;;;;;6.10;1.60;;;13.80;99.90;;;;;;4886405;29;20052;-77
2021/08/02 00:33:20;;;;;;;3.88;1.50;;;13.80;99.90;;;;;;4897580;29;20056;-78
2021/08/02 00:36:11;;;;;;;4.82;1.67;;;13.80;99.90;;;;;;4882345;29;20048;-78
2021/08/02 00:38:49;;;;;;;8.25;2.05;;;13.90;99.90;;;;;;4879052;29;20568;-77
2021/08/02 00:41:46;;;;;;;5.68;1.52;;;13.80;99.90;;;;;;4892771;29;20037;-77
2021/08/02 00:44:23;;;;;;;3.50;1.35;;;13.80;99.90;;;;;;4897254;29;20044;-78
2021/08/02 00:46:56;;;;;;;2.65;1.00;;;13.80;99.90;;;;;;4896655;29;20044;-77
2021/08/02 00:49:25;;;;;;;3.63;1.17;;;13.80;99.90;;;;;;4897721;29;20127;-78
2021/08/02 00:51:53;;;;;;;3.47;1.40;;;13.80;99.90;;;;;;4896372;29;20084;-78
2021/08/02 00:54:24;;;;;;;4.95;1.17;;;13.90;99.90;;;;;;4897455;29;20049;-77
2021/08/02 00:56:54;;;;;;;4.20;1.20;;;13.80;99.90;;;;;;4897151;29;20043;-77
2021/08/02 00:59:20;;;;;;;7.72;1.40;;;13.80;99.90;;;;;;4897220;29;20127;-78
2021/08/02 01:01:46;;;;;;;5.45;1.17;;;13.60;99.90;;;;;;4896602;29;20045;-77
2021/08/02 01:04:13;;;;;;;2.72;1.30;;;13.60;99.90;;;;;;4896415;29;20068;-77
2021/08/02 01:06:40;;;;;;;7.45;1.63;;;13.60;99.90;;;;;;4896800;29;20064;-77
2021/08/02 01:09:07;;;;;;;5.38;1.67;;;13.50;99.90;;;;;;4896772;29;20048;-77
2021/08/02 01:11:33;;;;;;;4.68;1.63;;;13.50;99.90;;;;;;4896031;29;20551;-77
2021/08/02 01:14:02;;;;;;;5.75;2.20;;;13.50;99.90;;;;;;4882235;29;20174;-77
2021/08/02 01:16:29;;;;;;;5.13;1.70;;;13.50;99.90;;;;;;4878293;29;20044;-77
2021/08/02 01:18:57;;;;;;;3.20;1.58;;;13.50;99.90;;;;;;4889776;29;20490;-77
2021/08/02 01:21:24;;;;;;;5.07;1.42;;;13.50;99.90;;;;;;4896829;29;20391;-78
2021/08/02 01:23:51;;;;;;;7.10;1.23;;;13.40;99.90;;;;;;4886223;29;20446;-77
2021/08/02 01:26:44;;;;;;;5.22;1.35;;;13.30;99.90;;;;;;4877541;29;20373;-77
2021/08/02 01:29:47;;;;;;;6.53;1.17;;;13.30;99.90;;;;;;4888451;29;20115;-78
2021/08/02 01:32:18;;;;;;;1.98;0.90;;;13.40;99.90;;;;;;4877914;29;20813;-78
2021/08/02 01:34:44;;;;;;;2.35;0.80;;;13.40;99.90;;;;;;4891803;29;20055;-77
2021/08/02 01:37:11;;;;;;;2.75;0.90;;;13.30;99.90;;;;;;4892419;29;20036;-77
2021/08/02 01:39:42;;;;;;;1.73;0.93;;;13.30;99.90;;;;;;4902147;29;20087;-78
2021/08/02 01:42:08;;;;;;;5.68;1.33;;;13.30;99.90;;;;;;4903806;29;20127;-77
2021/08/02 01:44:36;;;;;;;2.58;0.90;;;13.30;99.90;;;;;;4905665;29;20691;-78
2021/08/02 01:47:08;;;;;;;3.13;0.95;;;13.30;99.90;;;;;;4901327;29;20127;-78
2021/08/02 01:49:45;;;;;;;2.67;1.20;;;13.20;99.90;;;;;;4878443;29;20044;-77
2021/08/02 01:52:24;;;;;;;2.83;1.38;;;13.30;99.90;;;;;;4876851;29;20041;-78
2021/08/02 01:54:56;;;;;;;3.75;1.30;;;13.20;99.90;;;;;;4877706;29;20049;-77
2021/08/02 01:57:27;;;;;;;2.15;0.80;;;13.10;99.90;;;;;;4881423;29;20060;-77
2021/08/02 02:00:08;;;;;;;2.17;1.15;;;13.10;99.90;;;;;;4896102;29;20044;-78
2021/08/02 02:02:36;;;;;;;4.25;0.95;;;13.10;99.90;;;;;;4895045;29;20041;-77
2021/08/02 02:05:05;;;;;;;2.03;0.80;;;13.00;99.90;;;;;;4896147;29;20516;-77
2021/08/02 02:07:58;;;;;;;5.43;0.80;;;13.00;99.90;;;;;;4894815;29;20072;-77
2021/08/02 02:10:25;;;;;;;;;;;13.00;99.90;;;;;;4896278;29;20041;-77
2021/08/02 02:12:53;;;;;;;4.68;1.77;;;13.10;99.90;;;;;;4895092;29;19911;-77
2021/08/02 02:15:19;;;;;;;4.25;2.42;;;13.10;99.90;;;;;;4895658;29;20057;-78
2021/08/02 02:17:45;;;;;;;5.25;2.10;;;13.10;99.90;;;;;;4892818;29;20513;-78
2021/08/02 02:20:13;;;;;;;5.93;2.67;;;13.10;99.90;;;;;;4895057;29;20407;-78
2021/08/02 02:22:39;;;;;;;3.42;1.70;;;13.00;99.90;;;;;;4895595;29;20587;-77
2021/08/02 02:25:10;;;;;;;3.42;1.80;;;13.00;99.90;;;;;;4895498;29;20040;-78
2021/08/02 02:27:37;;;;;;;5.68;1.75;;;13.10;99.90;;;;;;4895074;29;20032;-77
2021/08/02 02:30:05;;;;;;;3.45;1.75;;;13.10;99.90;;;;;;4893765;29;20047;-77
2021/08/02 02:32:32;;;;;;;3.85;1.40;;;13.10;99.90;;;;;;4895295;29;20047;-77
2021/08/02 02:35:00;;;;;;;4.88;1.40;;;13.10;99.90;;;;;;4878443;29;20157;-77
2021/08/02 02:37:26;;;;;;;2.65;1.50;;;13.10;99.90;;;;;;4895119;29;20041;-77
2021/08/02 02:39:52;;;;;;;4.45;1.50;;;13.10;99.90;;;;;;4894725;29;20053;-77
2021/08/02 02:42:20;;;;;;;3.65;1.60;;;13.10;99.90;;;;;;4895360;29;20731;-78
2021/08/02 02:44:47;;;;;;;6.25;1.90;;;13.00;99.90;;;;;;4885319;29;20519;-78
2021/08/02 02:47:12;;;;;;;4.03;1.40;;;13.10;99.90;;;;;;4876493;29;20037;-78
2021/08/02 02:49:39;;;;;;;3.55;1.63;;;13.10;99.90;;;;;;4876239;29;20045;-77
2021/08/02 02:52:07;;;;;;;3.05;0.95;;;13.00;99.90;;;;;;4876628;29;20064;-77
2021/08/02 02:54:33;;;;;;;6.50;1.77;;;12.90;99.90;;;;;;4880977;29;20755;-78
2021/08/02 02:57:00;;;;;;;3.28;1.02;;;12.90;99.90;;;;;;4895223;29;20070;-77
2021/08/02 02:59:26;;;;;;;4.00;1.20;;;12.90;99.90;;;;;;4894001;29;20036;-77
2021/08/02 03:01:53;;;;;;;3.75;1.48;;;12.90;99.90;;;;;;4894781;29;20177;-77
2021/08/02 03:04:20;;;;;;;6.88;1.30;;;12.90;99.90;;;;;;4893770;29;20051;-77
2021/08/02 03:06:47;;;;;;;4.82;1.40;;;12.90;99.90;;;;;;4876056;29;20072;-77
2021/08/02 03:09:18;;;;;;;3.08;1.23;;;12.90;99.90;;;;;;4876444;29;20080;-77
2021/08/02 03:11:45;;;;;;;4.10;1.40;;;12.90;99.90;;;;;;4893744;29;20060;-78
2021/08/02 03:14:11;;;;;;;5.07;1.50;;;12.90;99.90;;;;;;4894328;29;20173;-77
2021/08/02 03:16:36;;;;;;;5.38;1.45;;;12.90;99.90;;;;;;4894377;29;20131;-77
2021/08/02 03:19:03;;;;;;;4.35;1.13;;;13.00;99.90;;;;;;4888890;29;20193;-77
2021/08/02 03:21:29;;;;;;;3.60;1.00;;;12.90;99.90;;;;;;4888629;29;20068;-77
2021/08/02 03:24:16;;;;;;;4.65;1.20;;;12.80;99.90;;;;;;4895273;29;20162;-77
2021/08/02 03:26:52;;;;;;;4.05;1.42;;;12.90;99.90;;;;;;4894396;29;20551;-77
2021/08/02 03:29:34;;;;;;;6.25;1.33;;;12.80;99.90;;;;;;4894118;29;20492;-78
2021/08/02 03:32:09;;;;;;;6.63;1.58;;;12.80;99.90;;;;;;4893857;29;20437;-77
2021/08/02 03:34:35;;;;;;;7.05;1.73;;;12.80;99.90;;;;;;4894513;29;20585;-77
2021/08/02 03:37:06;;;;;;;5.25;1.30;;;12.80;99.90;;;;;;4894207;29;20071;-77
2021/08/02 03:39:32;;;;;;;3.67;1.45;;;12.80;99.90;;;;;;4894296;29;20048;-77
2021/08/02 03:41:58;;;;;;;9.40;1.60;;;12.90;99.90;;;;;;4881060;29;20823;-77
2021/08/02 03:44:26;;;;;;;4.93;1.23;;;12.80;99.90;;;;;;4875626;29;20485;-77
2021/08/02 03:46:54;;;;;;;2.10;1.20;;;12.80;99.90;;;;;;4886009;29;20067;-77
2021/08/02 03:49:20;;;;;;;4.95;1.10;;;12.80;99.90;;;;;;4894333;29;20029;-77
2021/08/02 03:51:58;;;;;;;2.65;0.85;;;12.80;99.90;;;;;;4886799;29;20049;-78
2021/08/02 03:54:29;;;;;;;3.28;1.00;;;12.80;99.90;;;;;;4875341;29;20113;-77
2021/08/02 03:56:56;;;;;;;2.13;0.85;;;12.90;99.90;;;;;;4876534;29;20049;-77
2021/08/02 03:59:25;;;;;;;5.82;1.40;;;12.90;99.90;;;;;;4876007;29;20128;-77
2021/08/02 04:01:51;;;;;;;4.65;1.75;;;12.80;99.90;;;;;;4879568;29;20057;-77
2021/08/02 04:04:17;;;;;;;5.53;1.70;;;12.80;99.90;;;;;;4894201;29;20115;-77
2021/08/02 04:06:43;;;;;;;3.30;1.60;;;12.80;99.90;;;;;;4891620;29;20214;-78
2021/08/02 04:09:11;;;;;;;5.00;1.63;;;12.80;99.90;;;;;;4875992;29;20045;-78
2021/08/02 04:11:39;;;;;;;4.07;1.48;;;12.80;99.90;;;;;;4875581;29;20116;-77
2021/08/02 04:14:05;;;;;;;4.38;1.60;;;12.90;99.90;;;;;;4892221;29;20056;-77
2021/08/02 04:16:31;;;;;;;4.60;1.33;;;12.90;99.90;;;;;;4884795;29;20052;-77
2021/08/02 04:18:56;;;;;;;3.20;1.20;;;12.60;99.90;;;;;;4880198;29;20119;-77
2021/08/02 04:21:22;;;;;;;5.80;1.20;;;12.60;99.90;;;;;;4885698;29;20084;-77
2021/08/02 04:23:48;;;;;;;3.13;1.45;;;12.70;99.90;;;;;;4893691;29;20033;-77
2021/08/02 04:26:14;;;;;;;7.32;1.67;;;12.60;99.90;;;;;;4907950;23;20069;-77
2021/08/02 04:28:41;;;;;;;5.13;1.40;;;12.60;99.90;;;;;;4882251;29;20040;-77
2021/08/02 04:31:07;;;;;;;5.05;1.30;;;12.60;99.90;;;;;;4882534;29;20057;-77
2021/08/02 04:33:33;;;;;;;4.22;1.42;;;12.60;99.90;;;;;;4882443;29;20053;-77
2021/08/02 04:35:58;;;;;;;8.98;1.55;;;12.70;99.90;;;;;;4883212;29;20045;-77
2021/08/02 04:38:24;;;;;;;6.18;1.83;;;12.60;99.90;;;;;;4888317;29;20048;-77
2021/08/02 04:40:50;;;;;;;5.75;2.00;;;12.50;99.90;;;;;;4875559;29;20060;-77
2021/08/02 04:43:15;;;;;;;3.67;1.60;;;12.50;99.90;;;;;;4881672;29;20430;-77
2021/08/02 04:45:41;;;;;;;4.55;1.67;;;12.50;99.90;;;;;;4897386;29;20056;-77
2021/08/02 04:48:07;;;;;;;3.33;1.55;;;12.60;99.90;;;;;;4877716;29;20061;-77
2021/08/02 04:50:32;;;;;;;3.95;1.80;;;12.50;99.90;;;;;;4878686;29;20044;-77
2021/08/02 04:52:58;;;;;;;3.05;1.60;;;12.60;99.90;;;;;;4878348;29;20481;-77
2021/08/02 04:55:24;;;;;;;4.10;1.52;;;12.60;99.90;;;;;;4885784;29;20670;-77
2021/08/02 04:57:49;;;;;;;6.30;1.65;;;12.60;99.90;;;;;;4890402;29;20562;-77
2021/08/02 05:00:15;;;;;;;4.68;1.70;;;12.70;99.90;;;;;;4881221;29;20053;-77
2021/08/02 05:02:41;;;;;;;4.38;1.70;;;12.60;99.90;;;;;;4878247;29;20055;-77
2021/08/02 05:05:06;;;;;;;3.13;1.67;;;12.80;99.90;;;;;;4878140;29;20465;-77
2021/08/02 05:07:32;;;;;;;6.28;2.05;;;12.80;99.90;;;;;;4888403;29;20036;-77
2021/08/02 05:09:58;;;;;;;6.03;2.22;;;12.70;99.90;;;;;;4884393;29;20105;-77
2021/08/02 05:12:24;;;;;;;4.72;1.63;;;12.80;99.90;;;;;;4897102;29;20048;-77
2021/08/02 05:14:49;;;;;;;3.60;1.90;;;12.80;99.90;;;;;;4896041;29;20040;-77
2021/08/02 05:17:15;;;;;;;3.60;1.70;;;12.70;99.90;;;;;;4890978;29;20116;-77
2021/08/02 05:19:40;;;;;;;5.38;1.75;;;12.80;99.90;;;;;;4896723;29;20036;-77
2021/08/02 05:22:06;;;;;;;5.15;1.50;;;12.90;99.90;;;;;;4886872;29;20033;-77
2021/08/02 05:24:32;;;;;;;5.65;1.42;;;13.10;99.90;;;;;;4870880;29;20045;-77
2021/08/02 05:26:58;;;;;;;5.05;1.35;;;13.30;99.90;;;;;;4889243;29;20076;-77
2021/08/02 05:29:24;;;;;;;5.68;1.52;;;13.50;99.90;;;;;;4886310;29;20436;-77
2021/08/02 05:31:50;;;;;;;4.57;1.25;;;13.60;99.90;;;;;;4889817;29;20069;-77
2021/08/02 05:34:15;;;;;;;2.92;1.23;;;13.80;99.90;;;;;;4890964;29;20047;-77
2021/08/02 05:36:41;;;;;;;4.95;1.30;;;13.80;99.90;;;;;;4911244;29;20036;-78
2021/08/02 05:39:08;;;;;;;6.45;1.50;;;13.90;99.90;;;;;;4877209;29;20099;-78
2021/08/02 05:41:34;;;;;;;6.05;1.15;;;14.00;99.90;;;;;;4877404;29;20049;-77
2021/08/02 05:43:59;;;;;;;5.38;1.00;;;14.10;99.90;;;;;;4882538;29;20043;-77
2021/08/02 05:46:25;;;;;;;1.90;0.80;;;14.20;99.90;;;;;;4896097;29;20044;-77
2021/08/02 05:48:51;;;;;;;1.73;0.70;;;14.30;99.90;;;;;;4895680;29;20076;-77
2021/08/02 05:51:17;;;;;;;1.98;0.60;;;14.30;99.90;;;;;;4896575;29;20091;-77
2021/08/02 05:53:42;;;;;;;4.30;0.90;;;14.30;99.90;;;;;;4884052;29;20254;-77
2021/08/02 05:56:09;;;;;;;2.45;0.90;;;14.30;99.90;;;;;;4891808;29;20048;-77
2021/08/02 05:58:34;;;;;;;3.75;0.90;;;14.60;99.90;;;;;;4895404;29;20097;-77
2021/08/02 06:01:00;;;;;;;3.22;0.55;;;14.80;99.90;;;;;;4895601;29;20076;-77
2021/08/02 06:03:25;;;;;;;5.70;1.52;;;14.90;99.90;;;;;;4895402;29;20620;-77
2021/08/02 06:05:51;;;;;;;4.15;1.83;;;15.00;99.90;;;;;;4895798;29;20376;-77
2021/08/02 06:08:17;;;;;;;4.35;2.35;;;15.30;99.90;;;;;;4896057;29;20041;-78
2021/08/02 06:10:42;;;;;;;10.10;6.10;;;15.60;99.90;;;;;;4892305;29;20045;-77
2021/08/02 06:13:08;;;;;;;14.13;7.55;;;15.90;99.90;;;;;;4883374;29;20578;-77
2021/08/02 06:15:34;;;;;;;7.80;5.32;;;16.00;99.90;;;;;;4888375;29;20122;-77
2021/08/02 06:17:59;;;;;;;7.13;3.90;;;16.10;99.90;;;;;;4884076;29;20029;-77
2021/08/02 06:20:25;;;;;;;5.68;3.13;;;16.40;99.90;;;;;;4888195;29;20045;-78
2021/08/02 06:22:51;;;;;;;6.55;2.92;;;16.50;99.90;;;;;;4891524;29;20032;-78
2021/08/02 06:25:16;;;;;;;7.95;3.28;;;16.60;99.90;;;;;;4888253;29;20060;-77
2021/08/02 06:27:42;;;;;;;6.10;2.88;;;17.00;99.90;;;;;;4885305;29;20132;-78
2021/08/02 06:30:08;;;;;;;4.10;2.65;;;17.10;99.90;;;;;;4896189;29;20039;-77
2021/08/02 06:32:34;;;;;;;6.63;3.53;;;17.30;99.90;;;;;;4892087;29;20063;-78
2021/08/02 06:34:59;;;;;;;4.20;1.90;;;17.40;99.90;;;;;;4887723;29;20052;-78
2021/08/02 06:37:27;;;;;;;5.22;2.38;;;17.30;99.90;;;;;;4889606;29;20044;-78
2021/08/02 06:39:53;;;;;;;4.78;2.20;;;17.20;99.90;;;;;;4888708;29;20044;-78
2021/08/02 06:42:19;;;;;;;3.53;1.17;;;17.30;99.90;;;;;;4895088;29;20044;-79
2021/08/02 06:44:45;;;;;;;3.70;1.00;;;17.50;99.90;;;;;;4898154;29;20037;-78
2021/08/02 06:47:11;;;;;;;2.42;1.00;;;17.50;99.90;;;;;;4889795;29;20070;-78
2021/08/02 06:49:36;;;;;;;2.95;1.30;;;17.50;99.90;;;;;;4888658;29;20033;-78
2021/08/02 06:52:03;;;;;;;4.05;1.10;;;17.50;99.90;;;;;;4887985;29;20054;-78
2021/08/02 06:54:29;;;;;;;4.75;1.30;;;17.80;99.90;;;;;;4889749;29;20384;-78
2021/08/02 06:56:54;;;;;;;4.45;1.10;;;17.70;99.90;;;;;;4890130;29;20056;-78
2021/08/02 06:59:20;;;;;;;7.45;1.30;;;17.70;99.90;;;;;;4889820;29;20112;-78
2021/08/02 07:01:46;;;;;;;5.63;1.20;;;17.80;99.90;;;;;;4888085;29;20097;-78
2021/08/02 07:04:11;;;;;;;3.05;1.38;;;18.10;99.90;;;;;;4885476;29;20109;-78
2021/08/02 07:06:41;;;;;;;7.15;0.90;;;18.30;99.90;;;;;;4884452;29;20064;-78
2021/08/02 07:09:10;;;;;;;5.70;1.08;;;18.50;99.90;;;;;;4891838;29;20040;-78
2021/08/02 07:11:36;;;;;;;3.35;0.90;;;18.50;99.90;;;;;;4884191;29;20057;-78
2021/08/02 07:14:02;;;;;;;2.20;0.90;;;18.40;99.90;;;;;;4883991;29;20036;-78
2021/08/02 07:16:27;;;;;;;5.57;1.33;;;18.40;99.90;;;;;;4880729;29;20060;-78
2021/08/02 07:18:53;;;;;;;7.30;0.90;;;18.50;99.90;;;;;;4890875;29;20883;-78
2021/08/02 07:21:20;;;;;;;3.83;1.10;;;18.50;99.90;;;;;;4891452;29;20056;-78
2021/08/02 07:23:46;;;;;;;5.35;1.02;;;18.80;99.90;;;;;;4885736;29;20051;-78
2021/08/02 07:26:13;;;;;;;4.75;1.30;;;19.00;99.90;;;;;;4895172;29;20071;-77
2021/08/02 07:28:38;;;;;;;10.00;1.83;;;18.60;99.90;;;;;;4885294;29;20033;-78
2021/08/02 07:31:04;;;;;;;3.85;1.58;;;18.60;99.90;;;;;;4891915;29;20049;-78
2021/08/02 07:33:30;;;;;;;3.10;1.05;;;18.90;99.90;;;;;;4879713;29;20055;-78
2021/08/02 07:35:56;;;;;;;4.90;1.10;;;19.40;99.90;;;;;;4899687;29;20036;-78
2021/08/02 07:38:22;;;;;;;5.90;1.30;;;19.30;99.90;;;;;;4878846;29;20072;-78
2021/08/02 07:40:48;;;;;;;3.58;1.00;;;19.60;99.90;;;;;;4891708;29;20044;-77
2021/08/02 07:43:13;;;;;;;1.83;0.85;;;19.70;99.90;;;;;;4883399;29;20400;-77
2021/08/02 07:45:39;;;;;;;3.30;1.10;;;19.90;99.90;;;;;;4886890;29;20373;-78
2021/08/02 07:48:05;;;;;;;2.80;1.02;;;19.90;99.90;;;;;;4889229;29;20052;-78
2021/08/02 07:50:31;;;;;;;3.47;0.80;;;19.90;99.90;;;;;;4896052;29;20373;-78
2021/08/02 07:52:56;;;;;;;3.20;1.00;;;20.30;99.90;;;;;;4887658;29;20395;-78
2021/08/02 07:55:22;;;;;;;4.38;0.98;;;19.80;99.90;;;;;;4900906;29;20108;-78
2021/08/02 07:57:48;;;;;;;2.00;1.00;;;20.00;99.90;;;;;;4889227;29;20127;-78
2021/08/02 08:00:17;;;;;;;3.03;0.90;;;19.40;99.90;;;;;;4882526;29;20393;-79
2021/08/02 08:02:43;;;;;;;2.97;1.00;;;19.60;99.90;;;;;;4891747;29;20025;-78
2021/08/02 08:05:10;;;;;;;4.13;0.70;;;19.90;99.90;;;;;;4892965;29;20488;-78
2021/08/02 08:07:47;;;;;;;3.40;0.90;;;20.00;99.90;;;;;;4888271;29;20120;-78
2021/08/02 08:10:15;;;;;;;2.05;0.90;;;19.70;99.90;;;;;;4891698;29;20017;-78
2021/08/02 08:12:41;;;;;;;2.50;0.77;;;19.50;99.90;;;;;;4885869;29;20484;-78
2021/08/02 08:15:08;;;;;;;2.38;1.10;;;19.90;99.90;;;;;;4891289;29;20051;-78
2021/08/02 08:17:34;;;;;;;2.38;1.00;;;19.70;99.90;;;;;;4892330;29;20108;-78
2021/08/02 08:19:59;;;;;;;3.33;1.35;;;19.70;99.90;;;;;;4888998;29;20021;-78
2021/08/02 08:22:27;;;;;;;3.38;1.00;;;19.60;99.90;;;;;;4896738;29;20597;-78
2021/08/02 08:24:53;;;;;;;2.30;0.85;;;20.10;99.90;;;;;;4889816;29;20578;-77
2021/08/02 08:27:18;;;;;;;2.70;1.17;;;20.50;99.90;;;;;;4901074;29;20060;-78
2021/08/02 08:29:44;;;;;;;3.35;1.05;;;20.30;99.90;;;;;;4888098;29;20029;-78
2021/08/02 08:32:10;;;;;;;1.25;0.70;;;20.00;99.90;;;;;;4890438;29;20038;-78
2021/08/02 08:34:36;;;;;;;2.50;0.90;;;20.20;99.90;;;;;;4889952;29;20615;-78
2021/08/02 08:37:02;;;;;;;3.88;0.98;;;19.80;99.90;;;;;;4899576;29;20101;-78
2021/08/02 08:39:27;;;;;;;3.17;0.90;;;19.90;99.90;;;;;;4898324;29;20131;-78
2021/08/02 08:41:53;;;;;;;1.88;0.80;;;20.30;99.90;;;;;;4874804;29;20176;-78
2021/08/02 08:44:20;;;;;;;3.30;1.00;;;20.40;99.90;;;;;;4883535;29;20123;-78
2021/08/02 08:46:46;;;;;;;2.15;0.88;;;20.50;99.90;;;;;;4875986;29;20153;-78
2021/08/02 08:49:12;;;;;;;4.50;0.80;;;20.60;99.90;;;;;;4882327;29;20736;-77
2021/08/02 08:51:42;;;;;;;1.55;0.88;;;20.40;99.90;;;;;;4875528;29;20044;-78
2021/08/02 08:54:08;;;;;;;2.03;0.80;;;20.90;99.90;;;;;;4879042;29;20140;-78
2021/08/02 08:56:33;;;;;;;2.67;0.70;;;21.30;99.90;;;;;;4871380;29;20173;-78
2021/08/02 08:58:59;;;;;;;4.30;0.85;;;20.90;99.90;;;;;;4873184;29;20115;-78
2021/08/02 09:01:27;;;;;;;2.08;0.73;;;20.70;99.90;;;;;;4876955;29;20556;-78
2021/08/02 09:03:54;;;;;;;2.70;0.80;;;21.40;99.90;;;;;;4876524;29;20041;-78
2021/08/02 09:06:20;;;;;;;2.05;0.80;;;21.40;99.90;;;;;;4878247;29;20048;-78
2021/08/02 09:08:46;;;;;;;5.22;0.90;;;21.20;99.90;;;;;;4877291;29;20033;-78
2021/08/02 09:11:24;;;;;;;3.03;0.70;;;21.30;99.90;;;;;;4876775;29;20504;-78
2021/08/02 09:13:50;;;;;;;1.50;0.60;;;21.10;99.90;;;;;;4880722;29;20029;-78
2021/08/02 09:16:35;;;;;;;2.13;0.80;;;21.00;99.90;;;;;;4876230;29;20048;-78
2021/08/02 09:19:07;;;;;;;2.08;0.90;;;21.20;99.90;;;;;;4875059;29;20045;-78
2021/08/02 09:21:40;;;;;;;1.83;0.60;;;21.70;99.90;;;;;;4874533;29;20045;-78
2021/08/02 09:24:05;;;;;;;3.55;1.00;;;21.20;99.90;;;;;;4878056;29;20078;-78
2021/08/02 09:26:38;;;;;;;1.65;0.70;;;21.50;99.90;;;;;;4889842;29;20069;-77
2021/08/02 09:29:05;;;;;;;5.07;0.80;;;21.40;99.90;;;;;;4877517;29;20415;-78
2021/08/02 09:31:46;;;;;;;4.28;0.90;;;21.30;99.90;;;;;;4877699;29;20052;-78
2021/08/02 09:34:12;;;;;;;2.13;0.57;;;21.80;99.90;;;;;;4876579;29;20481;-77
2021/08/02 09:36:44;;;;;;;2.20;0.77;;;22.30;99.90;;;;;;4876994;29;20045;-77
2021/08/02 09:39:11;;;;;;;;;;;22.40;99.90;;;;;;4872365;29;20040;-78
2021/08/02 09:41:36;;;;;;;3.50;0.70;;;22.30;99.90;;;;;;4878815;29;19970;-78
2021/08/02 09:44:05;;;;;;;2.38;0.80;;;22.60;99.90;;;;;;4888459;29;20060;-77
2021/08/02 09:46:31;;;;;;;1.40;0.43;;;22.10;99.70;;;;;;4879022;29;20049;-78
2021/08/02 09:49:04;;;;;;;1.70;0.60;;;22.20;99.90;;;;;;4873734;29;20124;-78
2021/08/02 09:51:42;;;;;;;5.00;0.80;;;22.40;99.90;;;;;;4895043;29;20052;-78
2021/08/02 09:54:08;;;;;;;2.28;0.60;;;22.50;99.90;;;;;;4860048;29;20636;-78
2021/08/02 09:56:36;;;;;;;2.72;0.70;;;22.70;99.90;;;;;;4876489;29;20052;-78
2021/08/02 09:59:02;;;;;;;2.90;1.08;;;22.30;99.90;;;;;;4881651;29;20104;-78
2021/08/02 10:01:28;;;;;;;3.35;0.90;;;22.40;99.90;;;;;;4871564;29;20135;-78
2021/08/02 10:03:54;;;;;;;2.30;0.93;;;22.40;99.90;;;;;;4872574;29;20056;-78
2021/08/02 10:06:20;;;;;;;1.92;0.70;;;21.80;99.90;;;;;;4873646;29;20685;-78
2021/08/02 10:08:46;;;;;;;2.65;0.80;;;22.00;99.90;;;;;;4862607;29;20041;-78
2021/08/02 10:11:11;;;;;;;3.38;0.80;;;21.30;99.90;;;;;;4877036;29;20053;-78
2021/08/02 10:13:44;;;;;;;4.05;1.00;;;21.70;99.90;;;;;;4872070;29;20041;-77
2021/08/02 10:16:15;;;;;;;1.27;0.60;;;21.40;99.90;;;;;;4876607;29;20045;-78
2021/08/02 10:18:47;;;;;;;2.75;0.70;;;21.20;99.90;;;;;;4877546;29;20084;-78
2021/08/02 10:21:13;;;;;;;2.00;0.70;;;21.20;99.90;;;;;;4880857;29;20053;-78
2021/08/02 10:23:39;;;;;;;1.90;0.60;;;21.40;99.90;;;;;;4883067;29;20384;-77
2021/08/02 10:26:21;;;;;;;1.42;0.50;;;21.40;99.90;;;;;;4874046;29;20489;-78
2021/08/02 10:28:58;;;;;;;3.88;0.60;;;21.60;98.30;;;;;;4873976;29;20037;-78
2021/08/02 10:31:27;;;;;;;3.03;0.50;;;21.70;99.10;;;;;;4870101;29;20050;-77
2021/08/02 10:33:55;;;;;;;3.42;0.65;;;21.80;97.90;;;;;;4867188;29;20040;-78
2021/08/02 10:36:22;;;;;;;1.08;0.50;;;21.60;99.10;;;;;;4867416;29;20083;-78
2021/08/02 10:38:53;;;;;;;1.77;0.52;;;22.30;99.40;;;;;;4874295;29;20037;-77
2021/08/02 10:41:32;;;;;;;0.82;0.45;;;22.60;98.50;;;;;;4866316;29;20100;-78
2021/08/02 10:44:19;;;;;;;1.75;0.60;;;22.90;99.50;;;;;;4874981;29;20036;-78
2021/08/02 10:46:46;;;;;;;2.70;0.60;;;22.90;98.00;;;;;;4874009;29;20080;-78
2021/08/02 10:49:14;;;;;;;2.65;0.82;;;22.50;98.00;;;;;;4871116;29;20112;-78
2021/08/02 10:51:46;;;;;;;2.20;0.70;;;22.50;97.80;;;;;;4878289;29;20077;-77
2021/08/02 10:54:12;;;;;;;2.25;0.60;;;22.40;98.20;;;;;;4869422;29;20191;-78
2021/08/02 10:56:38;;;;;;;2.03;0.70;;;22.30;98.70;;;;;;4868325;29;20127;-78
2021/08/02 10:59:04;;;;;;;2.42;0.60;;;22.10;98.70;;;;;;4876911;29;20067;-78
2021/08/02 11:01:30;;;;;;;6.45;0.68;;;22.00;98.40;;;;;;4878510;29;20053;-78
2021/08/02 11:03:57;;;;;;;4.75;0.80;;;22.00;99.10;;;;;;4873203;29;20044;-77
2021/08/02 11:06:23;;;;;;;5.75;0.70;;;22.20;99.90;;;;;;4880421;29;20143;-78
2021/08/02 11:08:51;;;;;;;3.13;0.60;;;22.10;99.70;;;;;;4876412;29;20030;-78
2021/08/02 11:11:25;;;;;;;2.65;0.75;;;22.20;99.50;;;;;;4871617;29;20386;-78
2021/08/02 11:14:03;;;;;;;1.80;0.70;;;22.40;98.90;;;;;;4868671;29;20405;-78
2021/08/02 11:16:28;;;;;;;1.30;0.57;;;22.30;99.50;;;;;;4864393;29;20502;-78
2021/08/02 11:18:54;;;;;;;1.40;0.60;;;22.20;99.90;;;;;;4870996;29;20054;-77
2021/08/02 11:21:26;;;;;;;2.20;0.80;;;22.20;99.60;;;;;;4873486;29;20485;-77
2021/08/02 11:23:56;;;;;;;3.25;0.80;;;22.80;99.80;;;;;;4863535;29;20046;-77
2021/08/02 11:26:22;;;;;;;1.70;0.70;;;23.10;98.40;;;;;;4878697;29;20515;-77
2021/08/02 11:28:50;;;;;;;1.73;0.60;;;23.20;97.80;;;;;;4876457;29;20080;-78
2021/08/02 11:31:17;;;;;;;2.85;0.55;;;23.10;96.40;;;;;;4878422;29;20041;-77
2021/08/02 11:33:44;;;;;;;1.35;0.60;;;22.70;96.70;;;;;;4880396;29;20028;-77
2021/08/02 11:36:18;;;;;;;1.08;0.40;;;22.80;96.70;;;;;;4873258;29;20053;-78
2021/08/02 11:38:44;;;;;;;3.42;0.50;;;22.80;96.70;;;;;;4871782;29;20036;-79
2021/08/02 11:41:10;;;;;;;2.35;0.60;;;22.80;97.00;;;;;;4869967;29;20055;-79
2021/08/02 11:43:44;;;;;;;1.95;0.55;;;22.70;96.20;;;;;;4880101;29;20108;-79
2021/08/02 11:46:13;;;;;;;3.90;0.70;;;22.40;96.90;;;;;;4875220;29;20049;-79
2021/08/02 11:48:43;;;;;;;2.17;0.75;;;22.10;96.60;;;;;;4876487;29;20112;-79
2021/08/02 11:51:11;;;;;;;1.77;0.60;;;22.10;96.90;;;;;;4875931;29;20101;-79
2021/08/02 11:53:37;;;;;;;2.35;0.70;;;21.80;97.40;;;;;;4874246;29;20037;-79
2021/08/02 11:56:04;;;;;;;1.50;0.50;;;21.80;97.10;;;;;;4873831;29;20037;-79
2021/08/02 11:58:47;;;;;;;2.38;0.68;;;21.80;97.30;;;;;;4875187;29;20053;-79
2021/08/02 12:01:13;;;;;;;2.17;0.70;;;21.90;99.40;;;;;;4895824;29;20075;-79
2021/08/02 12:03:44;;;;;;;1.10;0.50;;;22.00;99.20;;;;;;4862837;29;20052;-80
2021/08/02 12:06:10;;;;;;;2.50;0.60;;;22.10;97.10;;;;;;4879539;29;20070;-80
2021/08/02 12:08:35;;;;;;;1.30;0.55;;;22.20;95.80;;;;;;4871265;29;20068;-80
2021/08/02 12:11:06;;;;;;;1.63;0.50;;;22.30;95.90;;;;;;4879065;29;20111;-79
2021/08/02 12:13:44;;;;;;;1.08;0.50;;;22.40;96.70;;;;;;4875538;29;20048;-80
2021/08/02 12:16:12;;;;;;;1.98;0.60;;;22.50;96.80;;;;;;4874572;29;20074;-80
2021/08/02 12:18:40;;;;;;;1.33;0.60;;;22.40;97.30;;;;;;4872534;29;20124;-80
2021/08/02 12:21:24;;;;;;;1.95;0.60;;;22.60;96.30;;;;;;4876682;29;20044;-79
2021/08/02 12:24:01;;;;;;;3.45;0.65;;;22.70;96.30;;;;;;4876702;29;20030;-79
2021/08/02 12:26:26;;;;;;;1.70;0.50;;;22.70;96.10;;;;;;4877614;29;20198;-80
2021/08/02 12:28:52;;;;;;;1.65;0.60;;;22.70;96.50;;;;;;4874698;29;20587;-79
2021/08/02 12:31:21;;;;;;;4.18;1.00;;;22.70;96.70;;;;;;4886272;29;20053;-79
2021/08/02 12:33:49;;;;;;;2.90;0.60;;;22.70;96.70;;;;;;4878708;29;20063;-80
2021/08/02 12:36:16;;;;;;;2.75;0.75;;;22.70;96.40;;;;;;4855812;29;20049;-79
2021/08/02 12:38:46;;;;;;;3.33;0.60;;;22.70;97.90;;;;;;4884520;29;20033;-80
2021/08/02 12:41:12;;;;;;;3.00;0.55;;;22.70;97.60;;;;;;4876379;29;20041;-79
2021/08/02 12:43:38;;;;;;;6.63;0.60;;;22.80;96.90;;;;;;4871176;29;20029;-79
2021/08/02 12:46:04;;;;;;;1.25;0.60;;;22.70;94.90;;;;;;4871198;29;20094;-79
2021/08/02 12:48:30;;;;;;;2.63;0.60;;;22.80;95.60;;;;;;4870029;29;20048;-80
2021/08/02 12:50:55;;;;;;;3.13;0.70;;;22.40;95.70;;;;;;4878498;29;20694;-80
2021/08/02 12:53:21;;;;;;;1.85;0.60;;;22.50;95.70;;;;;;4871776;29;20076;-79